Orbital elements of KIKU-1
| Launched | 8 September 1975 |
| Flight ended | – |
| Launch site | Tanegashima Space Center, Japan |
| Owner | Japan |
| NORAD ID | 8197 |
| Alternative names |
ETS-I |
| Date fetched |
Epoch osculation |
Inc. [°] |
Ecc. | RA asc node [hr] |
Arg Peri. [°] |
Mean anom [°] |
Mean motion [rev/day] |
Abs. mag |
| Date fetched |
Epoch osculation |
Inc. [°] |
Ecc. | RA asc node [hr] |
Arg Peri. [°] |
Mean anom [°] |
Mean motion [rev/day] |
Abs. mag |
| 2026 May 08 17:57 | 2026 May 05 06:44:35 | 46.9902 | 0.00862 | 3.6409 | 268.5973 | 259.2937 | 13.59602 | 7.243 |
| 2026 May 07 17:58 | 2026 May 05 06:44:35 | 46.9902 | 0.00862 | 3.6409 | 268.5973 | 259.2937 | 13.59602 | 7.243 |
| 2026 May 06 17:57 | 2026 May 05 06:44:35 | 46.9902 | 0.00862 | 3.6409 | 268.5973 | 259.2937 | 13.59602 | 7.243 |
| 2026 May 05 17:57 | 2026 May 05 06:44:35 | 46.9902 | 0.00862 | 3.6409 | 268.5973 | 259.2937 | 13.59602 | 7.243 |
| 2026 May 04 17:57 | 2026 Apr 30 13:52:34 | 46.9892 | 0.00862 | 4.8990 | 250.3903 | 259.2937 | 13.59602 | 7.243 |
| 2026 May 03 17:57 | 2026 Apr 30 13:52:34 | 46.9892 | 0.00862 | 4.8990 | 250.3903 | 259.2937 | 13.59602 | 7.243 |
| 2026 May 02 17:57 | 2026 Apr 30 13:52:34 | 46.9892 | 0.00862 | 4.8990 | 250.3903 | 259.2937 | 13.59602 | 7.243 |
| 2026 May 01 17:56 | 2026 Apr 30 13:52:34 | 46.9892 | 0.00862 | 4.8990 | 250.3903 | 259.2937 | 13.59602 | 7.243 |
| 2026 Apr 30 17:56 | 2026 Apr 30 13:52:34 | 46.9892 | 0.00862 | 4.8990 | 250.3903 | 259.2937 | 13.59602 | 7.243 |
| 2026 Apr 29 17:57 | 2026 Apr 24 07:48:48 | 46.9880 | 0.00861 | 6.5718 | 226.1517 | 259.2937 | 13.59602 | 7.243 |
| 2026 Apr 28 17:56 | 2026 Apr 24 07:48:48 | 46.9880 | 0.00861 | 6.5718 | 226.1517 | 259.2937 | 13.59602 | 7.243 |
| 2026 Apr 27 17:58 | 2026 Apr 24 07:48:48 | 46.9880 | 0.00861 | 6.5718 | 226.1517 | 259.2937 | 13.59602 | 7.243 |
| 2026 Apr 26 17:58 | 2026 Apr 24 07:48:48 | 46.9880 | 0.00861 | 6.5718 | 226.1517 | 259.2937 | 13.59602 | 7.243 |
| 2026 Apr 25 17:58 | 2026 Apr 24 07:48:48 | 46.9880 | 0.00861 | 6.5718 | 226.1517 | 259.2937 | 13.59602 | 7.243 |
| 2026 Apr 24 17:59 | 2026 Apr 24 07:48:48 | 46.9880 | 0.00861 | 6.5718 | 226.1517 | 259.2937 | 13.59602 | 7.243 |
| 2026 Apr 23 17:57 | 2026 Apr 19 07:14:27 | 46.9874 | 0.00860 | 7.9160 | 206.6385 | 259.2937 | 13.59602 | 7.243 |
| 2026 Apr 22 17:57 | 2026 Apr 19 07:14:27 | 46.9874 | 0.00860 | 7.9160 | 206.6385 | 259.2937 | 13.59602 | 7.243 |
| 2026 Apr 21 17:57 | 2026 Apr 19 07:14:27 | 46.9874 | 0.00860 | 7.9160 | 206.6385 | 259.2937 | 13.59602 | 7.243 |
| 2026 Apr 20 17:57 | 2026 Apr 19 07:14:27 | 46.9874 | 0.00860 | 7.9160 | 206.6385 | 259.2937 | 13.59602 | 7.243 |
| 2026 Apr 19 17:58 | 2026 Apr 19 07:14:27 | 46.9874 | 0.00860 | 7.9160 | 206.6385 | 259.2937 | 13.59602 | 7.243 |
| 2026 Apr 18 17:56 | 2026 Apr 13 03:10:42 | 46.9872 | 0.00858 | 9.5666 | 182.6188 | 259.2937 | 13.59602 | 7.243 |
| 2026 Apr 16 17:57 | 2026 Apr 13 03:10:42 | 46.9872 | 0.00858 | 9.5666 | 182.6188 | 259.2937 | 13.59602 | 7.243 |
| 2026 Apr 14 17:57 | 2026 Apr 13 03:10:42 | 46.9872 | 0.00858 | 9.5666 | 182.6188 | 259.2937 | 13.59602 | 7.243 |
| 2026 Apr 13 17:57 | 2026 Apr 13 03:10:42 | 46.9872 | 0.00858 | 9.5666 | 182.6188 | 259.2937 | 13.59602 | 7.243 |
| 2026 Apr 12 17:57 | 2026 Apr 08 10:12:00 | 46.9876 | 0.00856 | 10.8260 | 164.2461 | 259.2937 | 13.59602 | 7.243 |
| 2026 Apr 11 17:57 | 2026 Apr 08 10:12:00 | 46.9876 | 0.00856 | 10.8260 | 164.2461 | 259.2937 | 13.59602 | 7.243 |